Louis Armstrong New Orleans International Airport
KMSY : now visible

Airfield :











YOU CAN JOIN US ON...

 
LOGIN :

Register | Disclaimer

   EN    FR    IT 

 









Legend :    VFR   Marginal VFR   IFR   Intensive IFR   Very Intensive IFR
Visi :
Ceiling :
>= 8 km
>= 3000ft
5 to 8 km
1000 to 3000 ft
1500m to 5 km
500 to 1000 ft
800 to 1500m
200 to 500 ft
< 800m
< 200 ft
Symbols :   Thunderstorms  Fog  Heavy snow  Heavy precipitations  Wind > 20 kt







- Airport Elevation : 4 ft
- IATA code : MSY


KMSY - Louis Armstrong New Orleans International

CURRENT METAR :
  • 260253Z 19005KT 10SM -RA OVC140 26/24 A2991 RMK AO2 SLP131 P0000 60000 T02610239 53009 $

EXPIRED METARs :
  • 260153Z 18007KT 10SM -RA FEW015 SCT120 OVC160 26/23 A2990 RMK AO2 RAB29 SLP127 P0000 T02560233 $
  • 260053Z 19005KT 10SM FEW020 SCT085 BKN140 OVC270 26/23 A2988 RMK AO2 RAE00 SLP121 P0000 T02560228 $

TAF KMSY
Valid from the 26 at 00:00 until the 27 at 06:00 UTC


252320Z 2600/2706 23004KT P6SM -RA FEW020 BKN160 OVC270
FM260900 16006KT P6SM SHRA VCTS SCT020CB OVC030
TEMPO 2610/2614 2SM TSRA BKN015CB OVC025
FM261400 19007KT 3SM SHRA VCTS OVC015CB
FM261500 20008KT P6SM VCTS SCT015CB OVC025
FM261800 20009KT P6SM SCT020 BKN035
No reported NOTAMs for that airfield.



MET'MAP, your aeronautical weather chart ! - Copyright ORBIFLY December 2007 - Disclaimer

ORBIFLY MET'MAP TEAM :

Programming & Development : Alexandra Zaïnal
Concept & Development : Baudouin d'Aumeries
Co-Development & Prog : Marc-Olivier Méhu
Technical & hardware support : Manuel Goepfert

Contact : metmap@orbifly.com




SOURCES & CREDITS :

   NOAA       Earth
Advisory